In Rescue
 
Open Full Screen Window  High Contrast Mode
Wind Gusting 00 knots
06
May 25, 2022 9:20 PM CDT
Present Weather: Drizzle
Weather Information
Wind Direction
  040 °
Wind Speed
  06 kt (7 mph)
Wind Gust
  00 kt (0 mph)
Altimeter
29.97 in
Visibility
5 SM
Temperature
08° C
46° F
Dewpoint
08° C
46° F
Humidity
100%
1hr Rain Fall
00.00 in.
24hr Rain Fall
00.08 in.
Sky Condition
Overcast @ 1,500 ft
Broken @ 800 ft
IFR

METAR KELO 260220Z AUTO 04006KT 5SM DZ BKN008 OVC015 08/08 A2997 RMK AO2

FAA Disclaimer: The data displayed is for advisory purposes only and is not to be used for flight planning or operations.